createdAt,value
2019-02-19T00:04:51.177Z,100120.72
2019-02-19T00:09:56.319Z,100119.95
2019-02-19T00:15:08.013Z,100113.33
2019-02-19T00:20:08.553Z,100114.69
2019-02-19T00:25:13.856Z,100107.28
2019-02-19T00:30:19.305Z,100102.76
2019-02-19T00:35:24.423Z,100099.05
2019-02-19T00:40:29.552Z,100100.16
2019-02-19T00:45:34.711Z,100094.91
2019-02-19T00:50:39.837Z,100092.80
2019-02-19T00:55:44.931Z,100091.25
2019-02-19T01:00:49.959Z,100086.20
2019-02-19T01:05:55.105Z,100084.36
2019-02-19T01:11:00.165Z,100077.48
2019-02-19T01:16:05.533Z,100075.11
2019-02-19T01:21:10.777Z,100074.86
2019-02-19T01:26:15.878Z,100066.92
2019-02-19T01:31:21.003Z,100070.67
2019-02-19T01:36:26.145Z,100074.11
2019-02-19T01:41:31.275Z,100068.31
2019-02-19T01:46:36.296Z,100065.70
2019-02-19T01:51:41.363Z,100052.20
2019-02-19T01:56:46.801Z,100062.49
2019-02-19T02:01:51.900Z,100055.62
2019-02-19T02:06:56.983Z,100055.64
2019-02-19T02:12:02.011Z,100053.00
2019-02-19T02:17:08.162Z,100050.64
2019-02-19T02:22:13.169Z,100046.16
2019-02-19T02:27:18.558Z,100045.08
2019-02-19T02:32:24.154Z,100045.62
2019-02-19T02:37:29.222Z,100037.14
2019-02-19T02:42:34.407Z,100033.70
2019-02-19T02:47:39.555Z,100030.50
2019-02-19T02:52:44.658Z,100036.33
2019-02-19T02:57:49.679Z,100026.03
2019-02-19T03:02:54.739Z,100033.41
2019-02-19T03:08:03.523Z,100029.16
2019-02-19T03:13:15.003Z,100028.89
2019-02-19T03:18:20.068Z,100027.34
2019-02-19T03:23:25.121Z,100032.91
2019-02-19T03:28:31.153Z,100031.86
2019-02-19T03:33:36.193Z,100032.38
2019-02-19T03:38:41.549Z,100032.66
2019-02-19T03:43:47.049Z,100032.11
2019-02-19T03:48:52.158Z,100040.59
2019-02-19T03:53:57.229Z,100030.29
2019-02-19T03:59:02.318Z,100031.07
2019-02-19T04:04:07.331Z,100039.78
2019-02-19T04:09:12.432Z,100028.97
2019-02-19T04:14:26.621Z,100033.72
2019-02-19T04:19:31.784Z,100030.80
2019-02-19T04:24:37.473Z,100034.26
2019-02-19T04:29:42.603Z,100042.19
2019-02-19T04:34:47.637Z,100045.08
2019-02-19T04:39:52.739Z,100054.83
2019-02-19T04:44:58.207Z,100054.32
2019-02-19T04:50:05.268Z,100051.66
2019-02-19T04:55:10.300Z,100056.66
2019-02-19T05:00:15.374Z,100050.31
2019-02-19T05:05:20.440Z,100052.69
2019-02-19T05:10:25.614Z,100051.91
2019-02-19T05:15:30.925Z,100052.71
2019-02-19T05:20:39.141Z,100055.89
2019-02-19T05:25:44.285Z,100058.24
2019-02-19T05:30:49.743Z,100065.09
2019-02-19T05:35:54.907Z,100061.63
2019-02-19T05:40:59.884Z,100074.55
2019-02-19T05:46:05.111Z,100072.41
2019-02-19T05:51:10.135Z,100077.95
2019-02-19T05:56:15.631Z,100079.80
2019-02-19T06:01:21.654Z,100085.06
2019-02-19T06:06:26.799Z,100083.49
2019-02-19T06:11:32.703Z,100095.12
2019-02-19T06:16:38.085Z,100088.55
2019-02-19T06:21:43.591Z,100093.84
2019-02-19T06:26:49.673Z,100101.23
2019-02-19T06:31:59.495Z,100105.18
2019-02-19T06:37:05.208Z,100097.78
2019-02-19T06:42:11.747Z,100113.89
2019-02-19T06:47:18.949Z,100108.64
2019-02-19T06:52:24.070Z,100134.22
2019-02-19T06:57:29.254Z,100131.30
2019-02-19T07:02:50.127Z,100130.28
2019-02-19T07:07:55.335Z,100134.23
2019-02-19T07:13:00.726Z,100136.13
2019-02-19T07:18:05.894Z,100135.33
2019-02-19T07:23:11.138Z,100140.61
2019-02-19T07:28:16.563Z,100145.66
2019-02-19T07:33:21.764Z,100150.67
2019-02-19T07:38:27.805Z,100152.52
2019-02-19T07:43:32.979Z,100148.31
2019-02-19T07:48:39.780Z,100148.11
2019-02-19T07:53:54.015Z,100158.14
2019-02-19T07:58:59.641Z,100151.84
2019-02-19T08:04:05.311Z,100164.52
2019-02-19T08:09:12.744Z,100169.87
2019-02-19T08:14:17.921Z,100173.30
2019-02-19T08:19:23.089Z,100177.27
2019-02-19T08:24:28.205Z,100173.09
2019-02-19T08:29:33.405Z,100168.05
2019-02-19T08:34:38.517Z,100172.83
2019-02-19T08:39:43.685Z,100168.81
2019-02-19T08:44:49.963Z,100172.28
2019-02-19T08:49:55.025Z,100175.41
2019-02-19T08:55:00.347Z,100177.27
2019-02-19T09:00:07.245Z,100184.35
2019-02-19T09:05:13.660Z,100186.74
2019-02-19T09:10:18.844Z,100192.23
2019-02-19T09:15:23.972Z,100197.17
2019-02-19T09:20:29.179Z,100205.62
2019-02-19T09:25:35.243Z,100207.14
2019-02-19T09:30:40.459Z,100208.63
2019-02-19T09:35:45.671Z,100207.41
2019-02-19T09:40:50.991Z,100208.75
2019-02-19T09:45:56.127Z,100212.52
2019-02-19T09:51:01.543Z,100213.42
2019-02-19T09:56:06.683Z,100221.25
2019-02-19T10:01:11.853Z,100223.17
2019-02-19T10:06:17.078Z,100207.52
2019-02-19T10:11:22.341Z,100205.34
2019-02-19T10:16:28.319Z,100209.25
2019-02-19T10:21:33.475Z,100216.77
2019-02-19T10:26:40.672Z,100236.92
2019-02-19T10:31:46.057Z,100240.15
2019-02-19T10:36:51.161Z,100234.59
2019-02-19T10:41:56.273Z,100232.75
2019-02-19T10:47:01.327Z,100230.86
2019-02-19T10:52:06.468Z,100227.45
2019-02-19T10:57:11.687Z,100229.31
2019-02-19T11:02:16.964Z,100221.36
2019-02-19T11:07:22.117Z,100218.73
2019-02-19T11:12:27.249Z,100211.06
2019-02-19T11:17:32.306Z,100225.36
2019-02-19T11:22:37.532Z,100228.53
2019-02-19T11:27:42.657Z,100232.80
2019-02-19T11:32:48.662Z,100233.33
2019-02-19T11:37:53.891Z,100240.75
2019-02-19T11:42:59.356Z,100248.41
2019-02-19T11:48:04.470Z,100242.86
2019-02-19T11:53:09.716Z,100240.77
2019-02-19T11:58:14.797Z,100233.08
2019-02-19T12:03:24.992Z,100234.33
2019-02-19T12:08:38.655Z,100236.46
2019-02-19T12:13:36.996Z,100238.06
2019-02-19T12:18:46.189Z,100229.02
2019-02-19T12:23:49.218Z,100232.78
2019-02-19T12:28:54.549Z,100227.72
2019-02-19T12:34:00.528Z,100223.23
2019-02-19T12:39:06.265Z,100229.86
2019-02-19T12:44:12.097Z,100220.29
2019-02-19T12:49:17.418Z,100221.89
2019-02-19T12:54:22.868Z,100223.99
2019-02-19T12:59:28.135Z,100208.10
2019-02-19T13:04:33.407Z,100212.66
2019-02-19T13:09:38.499Z,100216.64
2019-02-19T13:14:48.654Z,100220.61
2019-02-19T13:19:54.830Z,100206.05
2019-02-19T13:24:59.999Z,100215.31
2019-02-19T13:30:10.523Z,100215.30
2019-02-19T13:35:16.403Z,100192.19
2019-02-19T13:40:21.889Z,100197.47
2019-02-19T13:45:27.746Z,100196.13
2019-02-19T13:50:32.840Z,100217.33
2019-02-19T13:55:41.111Z,100209.26
2019-02-19T14:00:47.412Z,100194.56
2019-02-19T14:05:54.005Z,100198.18
2019-02-19T14:10:59.200Z,100205.58
2019-02-19T14:16:12.540Z,100194.23
2019-02-19T14:21:44.199Z,100193.27
2019-02-19T14:27:06.893Z,100202.34
2019-02-19T14:32:24.619Z,100207.95
2019-02-19T14:37:47.431Z,100212.48
2019-02-19T14:43:20.409Z,100218.79
2019-02-19T14:48:47.281Z,100231.02
2019-02-19T14:54:17.153Z,100230.27
2019-02-19T14:59:41.185Z,100228.71
2019-02-19T15:05:04.437Z,100224.82
2019-02-19T15:10:28.271Z,100224.31
2019-02-19T15:15:51.003Z,100226.68
2019-02-19T15:21:18.069Z,100232.08
2019-02-19T15:26:42.665Z,100232.66
2019-02-19T15:32:06.538Z,100226.02
2019-02-19T15:37:34.757Z,100223.33
2019-02-19T15:42:59.355Z,100227.91
2019-02-19T15:48:36.105Z,100227.69
2019-02-19T15:54:02.990Z,100234.37
2019-02-19T15:59:33.203Z,100233.63
2019-02-19T16:04:45.184Z,100232.31
2019-02-19T16:10:02.434Z,100238.70
2019-02-19T16:15:42.431Z,100233.20
2019-02-19T16:20:59.596Z,100233.23
2019-02-19T16:26:26.697Z,100239.63
2019-02-19T16:31:45.473Z,100232.78
2019-02-19T16:37:10.388Z,100245.77
2019-02-19T16:42:47.692Z,100251.07
2019-02-19T16:48:17.793Z,100253.47
2019-02-19T16:53:40.128Z,100253.21
2019-02-19T16:58:52.782Z,100258.00
2019-02-19T17:04:04.208Z,100262.25
2019-02-19T17:09:27.545Z,100272.03
2019-02-19T17:14:44.399Z,100274.95
2019-02-19T17:20:26.193Z,100281.84
2019-02-19T17:25:30.623Z,100287.41
2019-02-19T17:31:06.648Z,100299.33
2019-02-19T17:36:23.528Z,100297.20
2019-02-19T17:41:49.000Z,100307.28
2019-02-19T17:47:07.986Z,100302.49
2019-02-19T17:52:30.682Z,100311.77
2019-02-19T17:57:54.888Z,100312.03
2019-02-19T18:03:24.821Z,100314.41
2019-02-19T18:08:43.921Z,100317.31
2019-02-19T18:14:08.284Z,100321.55
2019-02-19T18:19:13.920Z,100325.78
2019-02-19T18:24:19.544Z,100326.57
2019-02-19T18:29:25.022Z,100334.00
2019-02-19T18:34:30.550Z,100328.16
2019-02-19T18:39:37.175Z,100344.58
2019-02-19T18:44:42.863Z,100334.00
2019-02-19T18:49:48.474Z,100348.28
2019-02-19T18:54:55.315Z,100344.30
2019-02-19T19:00:00.658Z,100342.72
2019-02-19T19:05:06.489Z,100336.64
2019-02-19T19:10:16.912Z,100325.50
2019-02-19T19:15:22.316Z,100330.27
2019-02-19T19:20:27.965Z,100335.75
2019-02-19T19:25:33.502Z,100342.11
2019-02-19T19:30:38.945Z,100339.71
2019-02-19T19:35:46.138Z,100349.21
2019-02-19T19:40:51.676Z,100359.00
2019-02-19T19:45:56.942Z,100358.22
2019-02-19T19:51:03.412Z,100357.97
2019-02-19T19:56:21.912Z,100354.78
2019-02-19T20:01:37.113Z,100367.48
2019-02-19T20:06:43.682Z,100362.44
2019-02-19T20:11:49.030Z,100366.87
2019-02-19T20:16:55.080Z,100373.18
2019-02-19T20:22:00.460Z,100379.78
2019-02-19T20:27:09.716Z,100393.56
2019-02-19T20:32:14.936Z,100384.79
2019-02-19T20:37:24.020Z,100378.72
2019-02-19T20:42:30.354Z,100380.81
2019-02-19T20:47:39.504Z,100388.97
2019-02-19T20:52:46.942Z,100387.62
2019-02-19T20:57:59.559Z,100393.42
2019-02-19T21:03:06.056Z,100403.94
2019-02-19T21:08:13.330Z,100406.51
2019-02-19T21:13:19.114Z,100410.99
2019-02-19T21:18:24.517Z,100414.10
2019-02-19T21:23:32.479Z,100413.00
2019-02-19T21:28:37.900Z,100416.19
2019-02-19T21:33:44.790Z,100420.39
2019-02-19T21:38:53.384Z,100419.59
2019-02-19T21:44:01.939Z,100420.63
2019-02-19T21:49:13.664Z,100421.71
2019-02-19T21:54:21.034Z,100415.63
2019-02-19T21:59:26.547Z,100427.77
2019-02-19T22:04:32.706Z,100428.01
2019-02-19T22:09:38.263Z,100429.61
2019-02-19T22:14:45.588Z,100435.61
2019-02-19T22:19:51.446Z,100438.20
2019-02-19T22:25:00.299Z,100438.16
2019-02-19T22:30:05.964Z,100456.70
2019-02-19T22:35:16.926Z,100459.03
2019-02-19T22:40:24.660Z,100460.12
2019-02-19T22:45:29.822Z,100463.34
2019-02-19T22:50:38.425Z,100470.61
2019-02-19T22:56:06.112Z,100480.31
2019-02-19T23:01:29.871Z,100470.46
2019-02-19T23:06:35.512Z,100469.44
2019-02-19T23:11:40.560Z,100468.81
2019-02-19T23:16:46.538Z,100468.98
2019-02-19T23:21:51.618Z,100476.95
2019-02-19T23:26:58.723Z,100480.44
2019-02-19T23:32:03.874Z,100476.17
2019-02-19T23:37:15.480Z,100476.45
2019-02-19T23:42:20.510Z,100475.55
2019-02-19T23:47:25.580Z,100481.92
2019-02-19T23:52:30.884Z,100483.12
2019-02-19T23:57:36.244Z,100482.93
